createdAt,value
2019-04-02T00:01:34.334Z,97.00
2019-04-02T00:04:38.766Z,97.00
2019-04-02T00:07:43.681Z,97.20
2019-04-02T00:10:48.120Z,97.30
2019-04-02T00:13:53.545Z,97.20
2019-04-02T00:16:57.985Z,97.50
2019-04-02T00:20:03.402Z,97.40
2019-04-02T00:23:10.511Z,97.70
2019-04-02T00:26:15.237Z,97.50
2019-04-02T00:29:19.669Z,97.60
2019-04-02T00:32:24.118Z,97.70
2019-04-02T00:35:28.559Z,97.70
2019-04-02T00:38:34.289Z,97.90
2019-04-02T00:41:39.812Z,98.10
2019-04-02T00:44:44.253Z,98.00
2019-04-02T00:47:48.695Z,98.00
2019-04-02T00:50:53.124Z,98.10
2019-04-02T00:53:57.564Z,98.00
2019-04-02T00:57:02.009Z,97.90
2019-04-02T01:00:07.841Z,97.80
2019-04-02T01:03:12.471Z,97.70
2019-04-02T01:06:17.297Z,97.80
2019-04-02T01:09:21.733Z,97.70
2019-04-02T01:12:26.508Z,97.90
2019-04-02T01:15:30.937Z,98.20
2019-04-02T01:18:35.380Z,98.20
2019-04-02T01:21:39.827Z,98.10
2019-04-02T01:24:44.261Z,98.00
2019-04-02T01:27:49.032Z,98.00
2019-04-02T01:30:53.767Z,97.90
2019-04-02T01:33:58.207Z,98.10
2019-04-02T01:37:02.653Z,98.20
2019-04-02T01:40:10.172Z,98.10
2019-04-02T01:43:14.618Z,98.20
2019-04-02T01:46:19.043Z,98.30
2019-04-02T01:49:23.782Z,98.20
2019-04-02T01:52:28.223Z,98.30
2019-04-02T01:55:32.656Z,98.10
2019-04-02T01:58:37.377Z,98.30
2019-04-02T02:01:42.096Z,98.30
2019-04-02T02:04:46.552Z,98.30
2019-04-02T02:07:50.991Z,98.40
2019-04-02T02:10:55.433Z,98.40
2019-04-02T02:14:00.200Z,98.40
2019-04-02T02:17:04.636Z,98.40
2019-04-02T02:20:09.346Z,98.40
2019-04-02T02:23:13.787Z,98.40
2019-04-02T02:26:18.508Z,98.50
2019-04-02T02:29:23.241Z,98.60
2019-04-02T02:32:27.973Z,98.90
2019-04-02T02:35:32.710Z,99.10
2019-04-02T02:38:37.431Z,99.00
2019-04-02T02:42:06.022Z,99.00
2019-04-02T02:45:10.469Z,98.80
2019-04-02T02:48:16.540Z,99.10
2019-04-02T02:51:21.754Z,99.20
2019-04-02T02:54:26.200Z,99.30
2019-04-02T02:57:30.641Z,99.50
2019-04-02T03:00:35.082Z,99.40
2019-04-02T03:03:39.853Z,99.40
2019-04-02T03:06:44.286Z,99.40
2019-04-02T03:09:49.008Z,99.20
2019-04-02T03:12:53.442Z,99.20
2019-04-02T03:15:57.888Z,99.10
2019-04-02T03:19:03.003Z,99.00
2019-04-02T03:22:07.727Z,99.10
2019-04-02T03:25:12.164Z,98.90
2019-04-02T03:28:16.594Z,99.20
2019-04-02T03:31:21.047Z,99.30
2019-04-02T03:34:26.222Z,99.40
2019-04-02T03:37:31.183Z,99.50
2019-04-02T03:40:35.931Z,99.90
2019-04-02T03:43:42.233Z,99.90
2019-04-02T03:46:46.808Z,99.90
2019-04-02T03:49:51.263Z,99.90
2019-04-02T03:52:55.684Z,99.90
2019-04-02T03:56:00.135Z,99.70
2019-04-02T03:59:04.567Z,99.60
2019-04-02T04:02:09.334Z,99.80
2019-04-02T04:05:13.779Z,99.50
2019-04-02T04:08:18.493Z,99.70
2019-04-02T04:11:23.222Z,99.90
2019-04-02T04:14:27.648Z,99.80
2019-04-02T04:17:32.088Z,99.90
2019-04-02T04:20:36.793Z,99.90
2019-04-02T04:23:41.228Z,99.90
2019-04-02T04:26:46.113Z,99.90
2019-04-02T04:29:50.589Z,99.90
2019-04-02T04:32:55.027Z,99.90
2019-04-02T04:35:59.732Z,99.80
2019-04-02T04:39:06.103Z,99.90
2019-04-02T04:42:10.549Z,99.90
2019-04-02T04:45:15.254Z,99.90
2019-04-02T04:48:19.704Z,99.90
2019-04-02T04:51:24.407Z,99.90
2019-04-02T04:54:28.846Z,99.90
2019-04-02T04:57:34.001Z,99.90
2019-04-02T05:00:38.613Z,99.90
2019-04-02T05:04:38.321Z,99.90
2019-04-02T05:07:43.048Z,99.90
2019-04-02T05:13:43.548Z,99.90
2019-04-02T05:16:48.536Z,99.90
2019-04-02T05:19:53.271Z,99.90
2019-04-02T05:22:57.718Z,99.90
2019-04-02T05:26:02.160Z,99.90
2019-04-02T05:29:07.208Z,99.90
2019-04-02T05:32:11.776Z,99.90
2019-04-02T05:35:16.613Z,99.90
2019-04-02T05:38:21.054Z,99.90
2019-04-02T05:41:25.873Z,99.90
2019-04-02T05:44:30.605Z,99.90
2019-04-02T05:47:35.344Z,99.90
2019-04-02T05:50:40.171Z,99.90
2019-04-02T05:53:44.620Z,99.90
2019-04-02T05:56:49.690Z,99.90
2019-04-02T05:59:54.768Z,99.90
2019-04-02T06:02:59.207Z,99.90
2019-04-02T06:06:03.650Z,99.90
2019-04-02T06:09:08.564Z,99.90
2019-04-02T06:12:13.306Z,99.90
2019-04-02T06:15:17.723Z,99.90
2019-04-02T06:18:22.312Z,99.90
2019-04-02T06:21:28.190Z,99.90
2019-04-02T06:24:32.630Z,99.80
2019-04-02T06:27:37.347Z,99.40
2019-04-02T06:30:41.865Z,98.80
2019-04-02T06:33:46.319Z,99.00
2019-04-02T06:36:51.029Z,98.00
2019-04-02T06:39:55.477Z,96.70
2019-04-02T06:42:59.996Z,95.60
2019-04-02T06:46:04.859Z,96.70
2019-04-02T06:49:16.541Z,96.60
2019-04-02T06:52:21.338Z,96.00
2019-04-02T06:55:27.681Z,94.60
2019-04-02T06:58:31.963Z,93.90
2019-04-02T07:01:36.476Z,93.60
2019-04-02T07:04:41.704Z,94.20
2019-04-02T07:07:46.733Z,93.40
2019-04-02T07:10:53.951Z,93.10
2019-04-02T07:13:57.736Z,92.10
2019-04-02T07:17:02.460Z,92.10
2019-04-02T07:20:08.756Z,90.50
2019-04-02T07:23:13.201Z,90.30
2019-04-02T07:26:17.650Z,91.50
2019-04-02T07:29:22.510Z,92.80
2019-04-02T07:32:27.243Z,93.30
2019-04-02T07:35:31.718Z,93.30
2019-04-02T07:38:37.223Z,93.80
2019-04-02T07:41:41.808Z,93.70
2019-04-02T07:44:46.584Z,94.20
2019-04-02T07:47:51.305Z,94.30
2019-04-02T07:50:55.747Z,94.70
2019-04-02T07:54:00.454Z,94.10
2019-04-02T07:57:05.202Z,94.10
2019-04-02T08:00:10.657Z,94.70
2019-04-02T08:03:15.675Z,94.60
2019-04-02T08:06:20.190Z,94.80
2019-04-02T08:09:24.643Z,94.40
2019-04-02T08:12:29.355Z,94.70
2019-04-02T08:15:33.803Z,95.40
2019-04-02T08:18:38.258Z,95.10
2019-04-02T08:21:43.033Z,95.70
2019-04-02T08:24:47.484Z,95.20
2019-04-02T08:27:51.934Z,94.30
2019-04-02T08:30:56.715Z,93.80
2019-04-02T08:34:01.450Z,94.10
2019-04-02T08:37:06.609Z,93.30
2019-04-02T08:40:11.624Z,93.50
2019-04-02T08:43:18.134Z,93.80
2019-04-02T08:46:22.242Z,92.80
2019-04-02T08:49:26.946Z,92.90
2019-04-02T08:52:31.682Z,92.20
2019-04-02T08:55:36.413Z,91.20
2019-04-02T08:58:51.132Z,91.60
2019-04-02T09:01:48.102Z,91.10
2019-04-02T09:04:52.945Z,91.50
2019-04-02T09:07:57.677Z,92.20
2019-04-02T09:11:02.129Z,91.60
2019-04-02T09:14:07.958Z,91.60
2019-04-02T09:17:12.894Z,91.00
2019-04-02T09:20:18.048Z,91.70
2019-04-02T09:23:22.823Z,90.00
2019-04-02T09:26:27.321Z,90.00
2019-04-02T09:29:31.767Z,87.40
2019-04-02T09:32:36.932Z,87.20
2019-04-02T09:35:41.797Z,89.30
2019-04-02T09:38:46.771Z,87.40
2019-04-02T09:41:53.021Z,87.50
2019-04-02T09:44:57.963Z,88.10
2019-04-02T09:48:02.759Z,84.70
2019-04-02T09:51:08.091Z,85.10
2019-04-02T09:54:12.965Z,84.30
2019-04-02T09:57:17.628Z,83.70
2019-04-02T10:00:27.521Z,82.10
2019-04-02T10:03:33.231Z,83.70
2019-04-02T10:06:37.820Z,82.20
2019-04-02T10:09:42.535Z,83.30
2019-04-02T10:12:47.273Z,84.40
2019-04-02T10:15:51.728Z,81.10
2019-04-02T10:18:56.174Z,81.80
2019-04-02T10:22:00.620Z,82.30
2019-04-02T10:25:08.242Z,81.90
2019-04-02T10:28:14.756Z,77.70
2019-04-02T10:31:19.142Z,75.90
2019-04-02T10:34:23.967Z,74.50
2019-04-02T10:37:29.902Z,74.30
2019-04-02T10:40:36.443Z,72.00
2019-04-02T10:43:41.537Z,73.20
2019-04-02T10:46:46.278Z,74.40
2019-04-02T10:49:51.004Z,72.50
2019-04-02T10:52:55.773Z,73.60
2019-04-02T10:56:00.566Z,73.30
2019-04-02T10:59:05.607Z,71.50
2019-04-02T11:02:10.436Z,68.20
2019-04-02T11:05:18.333Z,54.50
2019-04-02T11:08:21.718Z,54.60
2019-04-02T11:11:26.567Z,54.60
2019-04-02T11:14:31.300Z,57.10
2019-04-02T11:17:36.142Z,53.70
2019-04-02T11:20:42.337Z,54.10
2019-04-02T11:23:46.771Z,52.80
2019-04-02T11:26:51.564Z,55.90
2019-04-02T11:29:56.285Z,52.40
2019-04-02T11:33:01.106Z,53.00
2019-04-02T11:36:06.557Z,52.00
2019-04-02T11:39:11.400Z,49.40
2019-04-02T11:42:16.231Z,47.40
2019-04-02T11:45:20.749Z,45.70
2019-04-02T11:48:25.486Z,43.80
2019-04-02T11:51:30.219Z,44.90
2019-04-02T11:54:34.738Z,41.60
2019-04-02T11:57:41.102Z,41.60
2019-04-02T12:00:47.287Z,40.60
2019-04-02T12:03:51.729Z,43.20
2019-04-02T12:06:56.531Z,41.50
2019-04-02T12:10:00.987Z,42.80
2019-04-02T12:13:05.427Z,41.30
2019-04-02T12:16:09.887Z,42.10
2019-04-02T12:19:14.378Z,40.60
2019-04-02T12:22:19.061Z,42.10
2019-04-02T12:25:23.799Z,37.40
2019-04-02T12:28:28.522Z,37.00
2019-04-02T12:31:35.537Z,37.20
2019-04-02T12:34:39.724Z,39.40
2019-04-02T12:37:44.456Z,37.40
2019-04-02T12:40:49.198Z,37.30
2019-04-02T12:43:53.919Z,40.30
2019-04-02T12:46:58.362Z,40.10
2019-04-02T12:50:03.597Z,38.40
2019-04-02T12:53:08.527Z,37.80
2019-04-02T12:56:12.984Z,39.00
2019-04-02T12:59:17.677Z,38.20
2019-04-02T13:02:22.558Z,39.90
2019-04-02T13:05:27.340Z,38.50
2019-04-02T13:08:32.666Z,40.60
2019-04-02T13:11:37.518Z,41.70
2019-04-02T13:14:42.250Z,40.10
2019-04-02T13:17:47.022Z,42.60
2019-04-02T13:20:51.710Z,41.30
2019-04-02T13:23:56.441Z,39.60
2019-04-02T13:27:01.175Z,39.10
2019-04-02T13:30:09.289Z,40.20
2019-04-02T13:33:13.740Z,39.80
2019-04-02T13:36:18.441Z,38.40
2019-04-02T13:39:23.658Z,38.80
2019-04-02T13:42:28.934Z,38.30
2019-04-02T13:45:33.393Z,39.00
2019-04-02T13:48:37.820Z,38.40
2019-04-02T13:51:42.263Z,42.10
2019-04-02T13:54:46.725Z,39.10
2019-04-02T13:57:51.160Z,38.90
2019-04-02T14:01:11.846Z,37.40
2019-04-02T14:04:16.288Z,35.50
2019-04-02T14:07:20.744Z,36.00
2019-04-02T14:10:25.182Z,36.90
2019-04-02T14:13:29.630Z,39.40
2019-04-02T14:16:34.158Z,36.90
2019-04-02T14:19:38.903Z,36.70
2019-04-02T14:22:43.361Z,35.00
2019-04-02T14:25:49.575Z,35.60
2019-04-02T14:28:54.321Z,36.00
2019-04-02T14:31:59.696Z,35.80
2019-04-02T14:35:06.500Z,36.90
2019-04-02T14:38:12.366Z,38.30
2019-04-02T14:41:17.651Z,36.80
2019-04-02T14:44:22.091Z,37.90
2019-04-02T14:47:26.801Z,38.40
2019-04-02T14:50:31.537Z,38.40
2019-04-02T14:53:36.761Z,39.10
2019-04-02T14:56:41.586Z,39.00
2019-04-02T14:59:46.543Z,39.20
2019-04-02T15:02:51.998Z,38.80
2019-04-02T15:05:56.584Z,41.60
2019-04-02T15:09:01.352Z,40.80
2019-04-02T15:12:06.084Z,40.60
2019-04-02T15:15:10.597Z,40.00
2019-04-02T15:18:15.033Z,39.90
2019-04-02T15:21:19.775Z,39.80
2019-04-02T15:24:30.150Z,40.60
2019-04-02T15:27:50.181Z,40.40
2019-04-02T15:30:55.524Z,39.30
2019-04-02T15:34:02.242Z,37.30
2019-04-02T15:37:06.969Z,36.30
2019-04-02T15:40:11.908Z,36.40
2019-04-02T15:43:16.357Z,38.10
2019-04-02T15:46:20.792Z,41.00
2019-04-02T15:49:25.483Z,41.80
2019-04-02T15:52:30.215Z,42.30
2019-04-02T15:55:34.946Z,42.90
2019-04-02T15:58:39.687Z,42.50
2019-04-02T16:01:44.131Z,43.20
2019-04-02T16:04:51.171Z,42.50
2019-04-02T16:07:55.004Z,43.10
2019-04-02T16:10:59.440Z,43.80
2019-04-02T16:14:04.147Z,45.20
2019-04-02T16:17:10.126Z,46.10
2019-04-02T16:20:16.044Z,47.00
2019-04-02T16:23:20.488Z,47.10
2019-04-02T16:26:27.748Z,48.40
2019-04-02T16:29:31.694Z,48.60
2019-04-02T16:32:36.428Z,50.40
2019-04-02T16:35:41.149Z,47.80
2019-04-02T16:38:45.610Z,46.90
2019-04-02T16:41:50.438Z,46.30
2019-04-02T16:44:57.597Z,45.50
2019-04-02T16:48:02.327Z,44.50
2019-04-02T16:51:07.059Z,42.70
2019-04-02T16:54:11.798Z,40.70
2019-04-02T16:57:16.518Z,40.60
2019-04-02T17:00:20.971Z,40.90
2019-04-02T17:03:26.919Z,41.10
2019-04-02T17:06:31.842Z,42.20
2019-04-02T17:09:36.301Z,41.70
2019-04-02T17:12:41.102Z,41.90
2019-04-02T17:15:45.555Z,41.60
2019-04-02T17:18:50.004Z,44.40
2019-04-02T17:21:54.449Z,40.40
2019-04-02T17:24:58.890Z,41.50
2019-04-02T17:28:03.331Z,41.80
2019-04-02T17:31:08.048Z,42.10
2019-04-02T17:34:12.502Z,42.50
2019-04-02T17:37:17.208Z,42.50
2019-04-02T17:40:21.932Z,42.10
2019-04-02T17:43:26.669Z,42.50
2019-04-02T17:46:31.393Z,40.40
2019-04-02T17:49:38.743Z,39.80
2019-04-02T17:52:42.301Z,40.00
2019-04-02T17:55:46.752Z,40.70
2019-04-02T17:58:51.275Z,42.10
2019-04-02T18:01:55.720Z,43.20
2019-04-02T18:05:00.179Z,43.90
2019-04-02T18:08:04.873Z,44.50
2019-04-02T18:11:09.319Z,44.70
2019-04-02T18:14:14.009Z,44.90
2019-04-02T18:17:18.614Z,45.10
2019-04-02T18:20:23.064Z,48.40
2019-04-02T18:23:27.510Z,50.40
2019-04-02T18:26:32.283Z,51.90
2019-04-02T18:29:36.728Z,50.50
2019-04-02T18:32:41.166Z,51.90
2019-04-02T18:35:45.615Z,53.80
2019-04-02T18:38:50.052Z,56.80
2019-04-02T18:41:54.803Z,57.50
2019-04-02T18:44:59.556Z,57.60
2019-04-02T18:48:04.272Z,67.30
2019-04-02T18:51:08.725Z,66.40
2019-04-02T18:54:13.433Z,60.00
2019-04-02T18:57:17.877Z,64.20
2019-04-02T19:00:22.747Z,66.70
2019-04-02T19:03:29.791Z,68.50
2019-04-02T19:06:36.236Z,62.30
2019-04-02T19:09:39.864Z,56.40
2019-04-02T19:12:44.381Z,61.00
2019-04-02T19:15:49.096Z,63.20
2019-04-02T19:18:53.956Z,61.30
2019-04-02T19:21:58.466Z,59.30
2019-04-02T19:25:04.038Z,64.40
2019-04-02T19:28:10.219Z,64.40
2019-04-02T19:31:15.028Z,65.50
2019-04-02T19:34:19.736Z,61.70
2019-04-02T19:37:24.178Z,63.50
2019-04-02T19:40:28.891Z,63.20
2019-04-02T19:43:33.327Z,63.10
2019-04-02T19:46:37.768Z,59.40
2019-04-02T19:49:42.465Z,61.40
2019-04-02T19:52:46.910Z,63.70
2019-04-02T19:55:51.361Z,61.50
2019-04-02T19:58:56.044Z,61.40
2019-04-02T20:02:00.829Z,61.40
2019-04-02T20:05:07.252Z,61.70
2019-04-02T20:08:11.978Z,61.60
2019-04-02T20:11:16.432Z,61.90
2019-04-02T20:14:22.450Z,62.70
2019-04-02T20:17:27.102Z,63.30
2019-04-02T20:20:31.819Z,63.20
2019-04-02T20:23:36.265Z,63.90
2019-04-02T20:26:40.976Z,63.90
2019-04-02T20:29:49.067Z,63.60
2019-04-02T20:32:51.591Z,63.90
2019-04-02T20:35:56.301Z,64.40
2019-04-02T20:39:01.027Z,64.80
2019-04-02T20:42:05.546Z,65.90
2019-04-02T20:45:10.492Z,65.80
2019-04-02T20:48:15.223Z,66.50
2019-04-02T20:51:19.704Z,65.80
2019-04-02T20:54:24.136Z,67.60
2019-04-02T20:57:28.895Z,67.80
2019-04-02T21:00:33.627Z,67.80
2019-04-02T21:03:48.787Z,67.00
2019-04-02T21:06:45.465Z,66.00
2019-04-02T21:09:49.952Z,65.30
2019-04-02T21:12:54.708Z,63.40
2019-04-02T21:15:59.434Z,62.70
2019-04-02T21:19:04.168Z,62.80
2019-04-02T21:22:08.643Z,61.60
2019-04-02T21:25:13.415Z,61.50
2019-04-02T21:28:18.154Z,60.80
2019-04-02T21:31:22.884Z,61.10
2019-04-02T21:34:37.783Z,60.50
2019-04-02T21:37:33.838Z,64.70
2019-04-02T21:40:38.224Z,65.00
2019-04-02T21:43:43.748Z,63.90
2019-04-02T21:46:48.486Z,62.30
2019-04-02T21:49:52.915Z,61.60
2019-04-02T21:52:57.444Z,62.80
2019-04-02T21:56:02.160Z,64.00
2019-04-02T21:59:07.097Z,65.10
2019-04-02T22:02:12.132Z,65.80
2019-04-02T22:05:16.970Z,66.50
2019-04-02T22:08:21.699Z,66.60
2019-04-02T22:11:26.427Z,67.90
2019-04-02T22:14:30.873Z,68.10
2019-04-02T22:17:35.311Z,69.20
2019-04-02T22:20:40.010Z,72.70
2019-04-02T22:23:44.465Z,73.50
2019-04-02T22:26:49.163Z,75.80
2019-04-02T22:29:53.602Z,78.40
2019-04-02T22:32:58.314Z,80.30
2019-04-02T22:36:02.747Z,79.60
2019-04-02T22:39:08.269Z,80.80
2019-04-02T22:42:12.716Z,81.90
2019-04-02T22:45:17.152Z,81.70
2019-04-02T22:48:21.871Z,82.70
2019-04-02T22:51:26.308Z,84.40
2019-04-02T22:54:31.892Z,84.70
2019-04-02T22:57:36.918Z,81.30
2019-04-02T23:00:41.607Z,84.30
2019-04-02T23:03:46.345Z,83.90
2019-04-02T23:06:50.781Z,86.30
2019-04-02T23:09:55.495Z,86.70
2019-04-02T23:12:59.937Z,87.10
2019-04-02T23:16:23.882Z,87.60
2019-04-02T23:19:12.749Z,87.60
2019-04-02T23:22:17.290Z,87.40
2019-04-02T23:25:21.734Z,86.10
2019-04-02T23:28:26.187Z,88.90
2019-04-02T23:31:30.620Z,89.60
2019-04-02T23:34:35.065Z,87.30
2019-04-02T23:37:39.936Z,90.20
2019-04-02T23:40:44.534Z,90.10
2019-04-02T23:43:48.978Z,90.50
2019-04-02T23:46:53.513Z,91.00
2019-04-02T23:49:57.940Z,90.50
2019-04-02T23:53:03.650Z,90.10
2019-04-02T23:56:08.269Z,91.40
2019-04-02T23:59:12.766Z,91.50
